createdAt,value
2019-03-21T00:00:17.000Z,102133
2019-03-21T00:02:17.000Z,102131
2019-03-21T00:04:17.000Z,102132
2019-03-21T00:05:17.000Z,102133
2019-03-21T00:07:02.000Z,102131
2019-03-21T00:08:17.000Z,102130
2019-03-21T00:09:17.000Z,102136
2019-03-21T00:11:17.000Z,102142
2019-03-21T00:12:17.000Z,102137
2019-03-21T00:14:02.000Z,102134
2019-03-21T00:16:17.000Z,102139
2019-03-21T00:18:17.000Z,102134
2019-03-21T00:20:17.000Z,102135
2019-03-21T00:22:17.000Z,102140
2019-03-21T00:23:17.000Z,102138
2019-03-21T00:25:17.000Z,102137
2019-03-21T00:26:47.000Z,102138
2019-03-21T00:28:17.000Z,102135
2019-03-21T00:30:17.000Z,102139
2019-03-21T00:32:17.000Z,102142
2019-03-21T00:34:17.000Z,102146
2019-03-21T00:35:17.000Z,102146
2019-03-21T00:37:17.000Z,102147
2019-03-21T00:38:17.000Z,102140
2019-03-21T00:39:17.000Z,102145
2019-03-21T00:41:17.000Z,102148
2019-03-21T00:42:17.000Z,102143
2019-03-21T00:44:17.000Z,102141
2019-03-21T00:45:47.000Z,102143
2019-03-21T00:47:17.000Z,102137
2019-03-21T00:48:17.000Z,102137
2019-03-21T00:50:17.000Z,102139
2019-03-21T00:52:17.000Z,102133
2019-03-21T00:53:17.000Z,102134
2019-03-21T00:54:17.000Z,102136
2019-03-21T00:55:17.000Z,102136
2019-03-21T00:57:02.000Z,102133
2019-03-21T00:58:17.000Z,102133
2019-03-21T00:59:17.000Z,102133
2019-03-21T01:01:02.000Z,102131
2019-03-21T01:02:17.000Z,102132
2019-03-21T01:04:02.000Z,102130
2019-03-21T01:05:17.000Z,102127
2019-03-21T01:07:17.000Z,102123
2019-03-21T01:09:17.000Z,102124
2019-03-21T01:10:17.000Z,102121
2019-03-21T01:12:02.000Z,102124
2019-03-21T01:13:17.000Z,102125
2019-03-21T01:15:17.000Z,102117
2019-03-21T01:17:17.000Z,102113
2019-03-21T01:19:02.000Z,102111
2019-03-21T01:20:17.000Z,102111
2019-03-21T01:22:02.000Z,102108
2019-03-21T01:23:17.000Z,102105
2019-03-21T01:24:17.000Z,102106
2019-03-21T01:26:17.000Z,102106
2019-03-21T01:28:17.000Z,102109
2019-03-21T01:30:02.000Z,102105
2019-03-21T01:32:17.000Z,102104
2019-03-21T01:34:02.000Z,102105
2019-03-21T01:35:17.000Z,102103
2019-03-21T01:36:17.000Z,102103
2019-03-21T01:37:17.000Z,102106
2019-03-21T01:39:17.000Z,102104
2019-03-21T01:41:17.000Z,102106
2019-03-21T01:43:02.000Z,102109
2019-03-21T01:44:17.000Z,102108
2019-03-21T01:45:17.000Z,102107
2019-03-21T01:47:17.000Z,102106
2019-03-21T01:49:02.000Z,102105
2019-03-21T01:50:17.000Z,102099
2019-03-21T01:52:17.000Z,102106
2019-03-21T01:54:17.000Z,102094
2019-03-21T01:56:17.000Z,102101
2019-03-21T01:58:17.000Z,102099
2019-03-21T01:59:17.000Z,102099
2019-03-21T02:01:02.000Z,102098
2019-03-21T02:02:17.000Z,102102
2019-03-21T02:04:02.000Z,102097
2019-03-21T02:05:17.000Z,102098
2019-03-21T02:07:17.000Z,102096
2019-03-21T02:09:17.000Z,102090
2019-03-21T02:11:17.000Z,102087
2019-03-21T02:12:17.000Z,102090
2019-03-21T02:14:18.000Z,102086
2019-03-21T02:16:05.000Z,102081
2019-03-21T02:18:17.000Z,102081
2019-03-21T02:20:02.000Z,102088
2019-03-21T02:21:02.000Z,102085
2019-03-21T02:22:18.000Z,102087
2019-03-21T02:24:02.000Z,102083
2019-03-21T02:25:18.000Z,102087
2019-03-21T02:27:02.000Z,102088
2019-03-21T02:28:18.000Z,102086
2019-03-21T02:30:18.000Z,102082
2019-03-21T02:32:18.000Z,102078
2019-03-21T02:33:18.000Z,102074
2019-03-21T02:35:18.000Z,102079
2019-03-21T02:37:17.000Z,102074
2019-03-21T02:39:18.000Z,102077
2019-03-21T02:41:18.000Z,102080
2019-03-21T02:42:18.000Z,102083
2019-03-21T02:44:18.000Z,102083
2019-03-21T02:46:18.000Z,102081
2019-03-21T02:48:18.000Z,102082
2019-03-21T02:49:18.000Z,102079
2019-03-21T02:51:18.000Z,102084
2019-03-21T02:52:18.000Z,102087
2019-03-21T02:54:18.000Z,102085
2019-03-21T02:56:17.000Z,102087
2019-03-21T02:57:18.000Z,102083
2019-03-21T02:58:18.000Z,102083
2019-03-21T03:00:18.000Z,102085
2019-03-21T03:01:18.000Z,102081
2019-03-21T03:03:18.000Z,102086
2019-03-21T03:05:18.000Z,102084
2019-03-21T03:06:18.000Z,102080
2019-03-21T03:08:18.000Z,102085
2019-03-21T03:10:18.000Z,102087
2019-03-21T03:12:02.000Z,102083
2019-03-21T03:13:18.000Z,102080
2019-03-21T03:14:47.000Z,102085
2019-03-21T03:16:18.000Z,102084
2019-03-21T03:18:18.000Z,102084
2019-03-21T03:20:18.000Z,102084
2019-03-21T03:21:18.000Z,102086
2019-03-21T03:23:18.000Z,102087
2019-03-21T03:25:18.000Z,102090
2019-03-21T03:27:18.000Z,102090
2019-03-21T03:28:18.000Z,102086
2019-03-21T03:29:18.000Z,102086
2019-03-21T03:31:03.000Z,102088
2019-03-21T03:33:18.000Z,102096
2019-03-21T03:35:18.000Z,102092
2019-03-21T03:37:18.000Z,102093
2019-03-21T03:39:18.000Z,102092
2019-03-21T03:40:18.000Z,102092
2019-03-21T03:41:18.000Z,102088
2019-03-21T03:43:18.000Z,102098
2019-03-21T03:45:03.000Z,102091
2019-03-21T03:46:03.000Z,102096
2019-03-21T03:47:18.000Z,102097
2019-03-21T03:49:18.000Z,102097
2019-03-21T03:51:18.000Z,102093
2019-03-21T03:52:47.000Z,102095
2019-03-21T03:54:18.000Z,102099
2019-03-21T03:56:18.000Z,102093
2019-03-21T03:57:18.000Z,102101
2019-03-21T03:59:03.000Z,102100
2019-03-21T04:00:18.000Z,102102
2019-03-21T04:01:18.000Z,102107
2019-03-21T04:02:18.000Z,102108
2019-03-21T04:04:18.000Z,102107
2019-03-21T04:06:18.000Z,102106
2019-03-21T04:07:18.000Z,102109
2019-03-21T04:09:18.000Z,102106
2019-03-21T04:10:18.000Z,102109
2019-03-21T04:11:47.000Z,102112
2019-03-21T04:13:18.000Z,102106
2019-03-21T04:15:18.000Z,102110
2019-03-21T04:17:18.000Z,102106
2019-03-21T04:18:18.000Z,102106
2019-03-21T04:19:18.000Z,102104
2019-03-21T04:20:18.000Z,102109
2019-03-21T04:22:03.000Z,102108
2019-03-21T04:23:18.000Z,102113
2019-03-21T04:25:18.000Z,102109
2019-03-21T04:26:18.000Z,102105
2019-03-21T04:28:02.000Z,102107
2019-03-21T04:29:18.000Z,102103
2019-03-21T04:31:18.000Z,102108
2019-03-21T04:32:18.000Z,102106
2019-03-21T04:34:18.000Z,102106
2019-03-21T04:36:18.000Z,102111
2019-03-21T04:37:18.000Z,102108
2019-03-21T04:39:18.000Z,102104
2019-03-21T04:41:18.000Z,102108
2019-03-21T04:43:18.000Z,102110
2019-03-21T04:45:18.000Z,102110
2019-03-21T04:47:18.000Z,102114
2019-03-21T04:49:18.000Z,102115
2019-03-21T04:50:18.000Z,102117
2019-03-21T04:52:18.000Z,102103
2019-03-21T04:53:18.000Z,102102
2019-03-21T04:55:18.000Z,102104
2019-03-21T04:57:18.000Z,102098
2019-03-21T04:59:02.000Z,102105
2019-03-21T05:00:03.000Z,102100
2019-03-21T05:02:18.000Z,102103
2019-03-21T05:04:18.000Z,102099
2019-03-21T05:05:18.000Z,102104
2019-03-21T05:07:18.000Z,102095
2019-03-21T05:09:18.000Z,102100
2019-03-21T05:11:18.000Z,102111
2019-03-21T05:13:03.000Z,102108
2019-03-21T05:14:18.000Z,102110
2019-03-21T05:16:03.000Z,102109
2019-03-21T05:17:18.000Z,102109
2019-03-21T05:18:18.000Z,102113
2019-03-21T05:20:18.000Z,102116
2019-03-21T05:22:18.000Z,102125
2019-03-21T05:24:18.000Z,102114
2019-03-21T05:26:03.000Z,102122
2019-03-21T05:28:18.000Z,102114
2019-03-21T05:29:18.000Z,102117
2019-03-21T05:31:18.000Z,102122
2019-03-21T05:33:18.000Z,102120
2019-03-21T05:35:18.000Z,102122
2019-03-21T05:36:48.000Z,102125
2019-03-21T05:38:18.000Z,102128
2019-03-21T05:39:18.000Z,102128
2019-03-21T05:40:18.000Z,102126
2019-03-21T05:42:18.000Z,102121
2019-03-21T05:44:02.000Z,102126
2019-03-21T05:45:18.000Z,102128
2019-03-21T05:47:18.000Z,102126
2019-03-21T05:49:18.000Z,102132
2019-03-21T05:51:18.000Z,102128
2019-03-21T05:53:18.000Z,102129
2019-03-21T05:54:18.000Z,102127
2019-03-21T05:56:18.000Z,102127
2019-03-21T05:57:18.000Z,102127
2019-03-21T05:59:18.000Z,102123
2019-03-21T06:00:48.000Z,102123
2019-03-21T06:02:18.000Z,102127
2019-03-21T06:04:18.000Z,102132
2019-03-21T06:05:47.000Z,102142
2019-03-21T06:07:18.000Z,102138
2019-03-21T06:09:18.000Z,102135
2019-03-21T06:10:18.000Z,102130
2019-03-21T06:12:02.000Z,102143
2019-03-21T06:13:18.000Z,102138
2019-03-21T06:15:02.000Z,102140
2019-03-21T06:16:18.000Z,102140
2019-03-21T06:18:18.000Z,102142
2019-03-21T06:19:18.000Z,102147
2019-03-21T06:21:18.000Z,102150
2019-03-21T06:23:02.000Z,102152
2019-03-21T06:24:18.000Z,102149
2019-03-21T06:25:18.000Z,102149
2019-03-21T06:27:05.000Z,102152
2019-03-21T06:28:18.000Z,102149
2019-03-21T06:29:18.000Z,102154
2019-03-21T06:30:18.000Z,102153
2019-03-21T06:31:18.000Z,102151
2019-03-21T06:33:18.000Z,102154
2019-03-21T06:35:18.000Z,102152
2019-03-21T06:36:18.000Z,102149
2019-03-21T06:38:18.000Z,102154
2019-03-21T06:40:18.000Z,102151
2019-03-21T06:42:18.000Z,102150
2019-03-21T06:44:18.000Z,102152
2019-03-21T06:46:03.000Z,102152
2019-03-21T06:48:18.000Z,102155
2019-03-21T06:50:18.000Z,102156
2019-03-21T06:52:18.000Z,102161
2019-03-21T06:54:02.000Z,102161
2019-03-21T06:55:18.000Z,102159
2019-03-21T06:56:18.000Z,102162
2019-03-21T06:58:02.000Z,102167
2019-03-21T06:59:18.000Z,102164
2019-03-21T07:01:18.000Z,102164
2019-03-21T07:03:02.000Z,102163
2019-03-21T07:04:03.000Z,102155
2019-03-21T07:06:18.000Z,102165
2019-03-21T07:08:02.000Z,102164
2019-03-21T07:09:18.000Z,102157
2019-03-21T07:11:02.000Z,102164
2019-03-21T07:12:18.000Z,102158
2019-03-21T07:14:18.000Z,102154
2019-03-21T07:16:18.000Z,102152
2019-03-21T07:18:18.000Z,102159
2019-03-21T07:20:18.000Z,102149
2019-03-21T07:22:02.000Z,102155
2019-03-21T07:23:18.000Z,102158
2019-03-21T07:24:18.000Z,102159
2019-03-21T07:26:18.000Z,102152
2019-03-21T07:28:18.000Z,102155
2019-03-21T07:30:18.000Z,102149
2019-03-21T07:32:18.000Z,102152
2019-03-21T07:34:17.000Z,102157
2019-03-21T07:36:17.000Z,102157
2019-03-21T07:38:17.000Z,102153
2019-03-21T07:40:17.000Z,102157
2019-03-21T07:42:17.000Z,102156
2019-03-21T07:44:17.000Z,102149
2019-03-21T07:46:17.000Z,102146
2019-03-21T07:48:02.000Z,102151
2019-03-21T07:49:17.000Z,102149
2019-03-21T07:50:17.000Z,102150
2019-03-21T07:51:17.000Z,102148
2019-03-21T07:52:17.000Z,102148
2019-03-21T07:54:17.000Z,102147
2019-03-21T07:56:17.000Z,102144
2019-03-21T07:58:17.000Z,102148
2019-03-21T07:59:17.000Z,102148
2019-03-21T08:01:02.000Z,102148
2019-03-21T08:02:02.000Z,102148
2019-03-21T08:03:17.000Z,102146
2019-03-21T08:05:17.000Z,102147
2019-03-21T08:07:02.000Z,102153
2019-03-21T08:08:17.000Z,102154
2019-03-21T08:09:17.000Z,102155
2019-03-21T08:11:17.000Z,102157
2019-03-21T08:12:17.000Z,102153
2019-03-21T08:14:17.000Z,102156
2019-03-21T08:16:17.000Z,102159
2019-03-21T08:18:17.000Z,102158
2019-03-21T08:20:17.000Z,102163
2019-03-21T08:22:17.000Z,102159
2019-03-21T08:23:17.000Z,102159
2019-03-21T08:25:17.000Z,102156
2019-03-21T08:27:17.000Z,102156
2019-03-21T08:28:17.000Z,102154
2019-03-21T08:30:02.000Z,102161
2019-03-21T08:31:17.000Z,102160
2019-03-21T08:32:17.000Z,102162
2019-03-21T08:34:17.000Z,102162
2019-03-21T08:35:17.000Z,102162
2019-03-21T08:37:18.000Z,102162
2019-03-21T08:39:18.000Z,102167
2019-03-21T08:41:18.000Z,102158
2019-03-21T08:43:18.000Z,102161
2019-03-21T08:45:18.000Z,102158
2019-03-21T08:46:18.000Z,102166
2019-03-21T08:48:03.000Z,102165
2019-03-21T08:49:18.000Z,102169
2019-03-21T08:50:18.000Z,102165
2019-03-21T08:52:18.000Z,102167
2019-03-21T08:54:03.000Z,102168
2019-03-21T08:56:18.000Z,102168
2019-03-21T08:58:18.000Z,102163
2019-03-21T09:00:18.000Z,102159
2019-03-21T09:01:18.000Z,102166
2019-03-21T09:03:18.000Z,102164
2019-03-21T09:05:18.000Z,102168
2019-03-21T09:06:18.000Z,102166
2019-03-21T09:08:18.000Z,102162
2019-03-21T09:10:18.000Z,102169
2019-03-21T09:11:18.000Z,102157
2019-03-21T09:13:18.000Z,102160
2019-03-21T09:15:18.000Z,102156
2019-03-21T09:16:18.000Z,102160
2019-03-21T09:18:18.000Z,102166
2019-03-21T09:19:18.000Z,102157
2019-03-21T09:21:18.000Z,102157
2019-03-21T09:23:03.000Z,102153
2019-03-21T09:24:18.000Z,102154
2019-03-21T09:26:18.000Z,102160
2019-03-21T09:28:18.000Z,102153
2019-03-21T09:29:48.000Z,102158
2019-03-21T09:31:05.000Z,102153
2019-03-21T09:32:18.000Z,102148
2019-03-21T09:34:18.000Z,102147
2019-03-21T09:35:18.000Z,102147
2019-03-21T09:37:03.000Z,102164
2019-03-21T09:39:18.000Z,102159
2019-03-21T09:40:18.000Z,102158
2019-03-21T09:42:17.000Z,102158
2019-03-21T09:43:17.000Z,102157
2019-03-21T09:45:17.000Z,102159
2019-03-21T09:46:47.000Z,102159
2019-03-21T09:48:17.000Z,102163
2019-03-21T09:50:17.000Z,102163
2019-03-21T09:51:17.000Z,102164
2019-03-21T09:53:17.000Z,102159
2019-03-21T09:55:02.000Z,102156
2019-03-21T09:56:02.000Z,102159
2019-03-21T09:57:02.000Z,102155
2019-03-21T09:58:17.000Z,102159
2019-03-21T09:59:17.000Z,102158
2019-03-21T10:01:17.000Z,102155
2019-03-21T10:03:02.000Z,102159
2019-03-21T10:04:17.000Z,102152
2019-03-21T10:05:47.000Z,102153
2019-03-21T10:07:17.000Z,102154
2019-03-21T10:09:17.000Z,102147
2019-03-21T10:11:17.000Z,102143
2019-03-21T10:12:17.000Z,102148
2019-03-21T10:14:17.000Z,102148
2019-03-21T10:15:17.000Z,102144
2019-03-21T10:17:17.000Z,102144
2019-03-21T10:19:17.000Z,102133
2019-03-21T10:21:17.000Z,102138
2019-03-21T10:22:17.000Z,102138
2019-03-21T10:24:17.000Z,102140
2019-03-21T10:26:02.000Z,102143
2019-03-21T10:27:17.000Z,102140
2019-03-21T10:29:17.000Z,102139
2019-03-21T10:31:17.000Z,102143
2019-03-21T10:33:17.000Z,102141
2019-03-21T10:35:17.000Z,102143
2019-03-21T10:37:17.000Z,102144
2019-03-21T10:39:17.000Z,102136
2019-03-21T10:41:17.000Z,102138
2019-03-21T10:43:02.000Z,102138
2019-03-21T10:44:02.000Z,102138
2019-03-21T10:45:17.000Z,102138
2019-03-21T10:47:02.000Z,102135
2019-03-21T10:48:17.000Z,102141
2019-03-21T10:50:02.000Z,102137
2019-03-21T10:51:17.000Z,102140
2019-03-21T10:53:17.000Z,102133
2019-03-21T10:54:17.000Z,102133
2019-03-21T10:55:17.000Z,102127
2019-03-21T10:57:02.000Z,102126
2019-03-21T10:58:17.000Z,102130
2019-03-21T10:59:17.000Z,102133
2019-03-21T11:01:17.000Z,102139
2019-03-21T11:03:17.000Z,102139
2019-03-21T11:05:17.000Z,102136
2019-03-21T11:07:17.000Z,102136
2019-03-21T11:08:17.000Z,102135
2019-03-21T11:10:17.000Z,102132
2019-03-21T11:11:17.000Z,102139
2019-03-21T11:13:17.000Z,102132
2019-03-21T11:15:02.000Z,102130
2019-03-21T11:16:17.000Z,102132
2019-03-21T11:18:17.000Z,102128
2019-03-21T11:19:17.000Z,102119
2019-03-21T11:21:17.000Z,102125
2019-03-21T11:23:02.000Z,102115
2019-03-21T11:24:17.000Z,102123
2019-03-21T11:26:17.000Z,102126
2019-03-21T11:28:17.000Z,102128
2019-03-21T11:30:17.000Z,102126
2019-03-21T11:32:17.000Z,102124
2019-03-21T11:34:17.000Z,102114
2019-03-21T11:36:17.000Z,102120
2019-03-21T11:37:17.000Z,102117
2019-03-21T11:38:17.000Z,102111
2019-03-21T11:40:17.000Z,102104
2019-03-21T11:42:17.000Z,102100
2019-03-21T11:43:17.000Z,102103
2019-03-21T11:45:02.000Z,102098
2019-03-21T11:47:17.000Z,102100
2019-03-21T11:49:17.000Z,102096
2019-03-21T11:51:17.000Z,102097
2019-03-21T11:53:18.000Z,102100
2019-03-21T11:55:17.000Z,102095
2019-03-21T11:56:17.000Z,102095
2019-03-21T11:58:02.000Z,102092
2019-03-21T11:59:47.000Z,102089
2019-03-21T12:01:17.000Z,102092
2019-03-21T12:03:02.000Z,102091
2019-03-21T12:05:17.000Z,102092
2019-03-21T12:06:17.000Z,102089
2019-03-21T12:08:17.000Z,102089
2019-03-21T12:09:17.000Z,102093
2019-03-21T12:11:17.000Z,102084
2019-03-21T12:13:17.000Z,102079
2019-03-21T12:15:17.000Z,102083
2019-03-21T12:17:17.000Z,102079
2019-03-21T12:18:17.000Z,102073
2019-03-21T12:20:17.000Z,102072
2019-03-21T12:21:17.000Z,102073
2019-03-21T12:22:17.000Z,102072
2019-03-21T12:24:17.000Z,102072
2019-03-21T12:26:17.000Z,102069
2019-03-21T12:28:17.000Z,102071
2019-03-21T12:29:17.000Z,102071
2019-03-21T12:30:17.000Z,102065
2019-03-21T12:32:02.000Z,102065
2019-03-21T12:33:17.000Z,102062
2019-03-21T12:34:17.000Z,102064
2019-03-21T12:35:17.000Z,102058
2019-03-21T12:37:17.000Z,102062
2019-03-21T12:38:17.000Z,102056
2019-03-21T12:39:17.000Z,102051
2019-03-21T12:40:47.000Z,102056
2019-03-21T12:42:17.000Z,102055
2019-03-21T12:43:17.000Z,102055
2019-03-21T12:44:47.000Z,102057
2019-03-21T12:46:17.000Z,102056
2019-03-21T12:47:17.000Z,102055
2019-03-21T12:49:17.000Z,102051
2019-03-21T12:51:17.000Z,102053
2019-03-21T12:52:18.000Z,102052
2019-03-21T12:54:18.000Z,102056
2019-03-21T12:56:18.000Z,102050
2019-03-21T12:58:18.000Z,102047
2019-03-21T13:00:18.000Z,102051
2019-03-21T13:02:18.000Z,102047
2019-03-21T13:04:18.000Z,102040
2019-03-21T13:05:18.000Z,102036
2019-03-21T13:07:18.000Z,102036
2019-03-21T13:09:02.000Z,102036
2019-03-21T13:10:18.000Z,102031
2019-03-21T13:12:18.000Z,102032
2019-03-21T13:14:02.000Z,102032
2019-03-21T13:15:18.000Z,102035
2019-03-21T13:17:18.000Z,102029
2019-03-21T13:19:18.000Z,102023
2019-03-21T13:20:18.000Z,102025
2019-03-21T13:21:18.000Z,102027
2019-03-21T13:22:48.000Z,102013
2019-03-21T13:25:18.000Z,102015
2019-03-21T13:26:18.000Z,102014
2019-03-21T13:27:18.000Z,102020
2019-03-21T13:29:18.000Z,102010
2019-03-21T13:31:02.000Z,102005
2019-03-21T13:32:02.000Z,102008
2019-03-21T13:33:18.000Z,102009
2019-03-21T13:35:03.000Z,102005
2019-03-21T13:37:03.000Z,102005
2019-03-21T13:38:18.000Z,102007
2019-03-21T13:40:02.000Z,102005
2019-03-21T13:41:18.000Z,102006
2019-03-21T13:43:18.000Z,101999
2019-03-21T13:45:18.000Z,101997
2019-03-21T13:47:18.000Z,101996
2019-03-21T13:48:18.000Z,102001
2019-03-21T13:50:02.000Z,101988
2019-03-21T13:51:18.000Z,101991
2019-03-21T13:53:02.000Z,101978
2019-03-21T13:54:18.000Z,101983
2019-03-21T13:55:18.000Z,101974
2019-03-21T13:57:03.000Z,101976
2019-03-21T13:58:18.000Z,101978
2019-03-21T13:59:18.000Z,101976
2019-03-21T14:01:18.000Z,101978
2019-03-21T14:03:02.000Z,101978
2019-03-21T14:04:18.000Z,101974
2019-03-21T14:06:18.000Z,101975
2019-03-21T14:07:18.000Z,101976
2019-03-21T14:09:18.000Z,101982
2019-03-21T14:11:17.000Z,101978
2019-03-21T14:13:18.000Z,101973
2019-03-21T14:15:18.000Z,101976
2019-03-21T14:16:47.000Z,101976
2019-03-21T14:18:17.000Z,101973
2019-03-21T14:20:18.000Z,101967
2019-03-21T14:22:18.000Z,101969
2019-03-21T14:24:18.000Z,101964
2019-03-21T14:26:18.000Z,101969
2019-03-21T14:28:18.000Z,101962
2019-03-21T14:30:02.000Z,101960
2019-03-21T14:31:18.000Z,101956
2019-03-21T14:32:18.000Z,101959
2019-03-21T14:34:02.000Z,101952
2019-03-21T14:35:18.000Z,101955
2019-03-21T14:36:18.000Z,101951
2019-03-21T14:38:18.000Z,101952
2019-03-21T14:40:18.000Z,101950
2019-03-21T14:42:18.000Z,101949
2019-03-21T14:44:18.000Z,101945
2019-03-21T14:46:18.000Z,101950
2019-03-21T14:48:18.000Z,101945
2019-03-21T14:49:18.000Z,101948
2019-03-21T14:51:18.000Z,101946
2019-03-21T14:52:18.000Z,101946
2019-03-21T14:54:02.000Z,101946
2019-03-21T14:55:18.000Z,101951
2019-03-21T14:57:02.000Z,101954
2019-03-21T14:58:18.000Z,101942
2019-03-21T15:00:18.000Z,101944
2019-03-21T15:02:18.000Z,101949
2019-03-21T15:03:18.000Z,101945
2019-03-21T15:05:18.000Z,101939
2019-03-21T15:06:18.000Z,101949
2019-03-21T15:07:18.000Z,101945
2019-03-21T15:09:02.000Z,101945
2019-03-21T15:10:18.000Z,101941
2019-03-21T15:11:18.000Z,101936
2019-03-21T15:13:17.000Z,101936
2019-03-21T15:15:18.000Z,101938
2019-03-21T15:16:18.000Z,101933
2019-03-21T15:17:18.000Z,101931
2019-03-21T15:18:18.000Z,101929
2019-03-21T15:20:18.000Z,101930
2019-03-21T15:21:18.000Z,101928
2019-03-21T15:23:02.000Z,101925
2019-03-21T15:25:17.000Z,101928
2019-03-21T15:26:50.000Z,101919
2019-03-21T15:28:18.000Z,101923
2019-03-21T15:30:03.000Z,101916
2019-03-21T15:31:17.000Z,101918
2019-03-21T15:32:18.000Z,101917
2019-03-21T15:34:18.000Z,101917
2019-03-21T15:36:18.000Z,101913
2019-03-21T15:38:18.000Z,101917
2019-03-21T15:40:18.000Z,101919
2019-03-21T15:42:18.000Z,101916
2019-03-21T15:43:18.000Z,101913
2019-03-21T15:45:03.000Z,101908
2019-03-21T15:46:17.000Z,101917
2019-03-21T15:48:18.000Z,101908
2019-03-21T15:50:18.000Z,101916
2019-03-21T15:52:02.000Z,101911
2019-03-21T15:53:18.000Z,101912
2019-03-21T15:55:18.000Z,101914
2019-03-21T15:57:18.000Z,101916
2019-03-21T15:58:18.000Z,101917
2019-03-21T16:00:02.000Z,101923
2019-03-21T16:01:18.000Z,101920
2019-03-21T16:03:02.000Z,101920
2019-03-21T16:04:18.000Z,101919
2019-03-21T16:06:02.000Z,101910
2019-03-21T16:07:17.000Z,101907
2019-03-21T16:08:17.000Z,101919
2019-03-21T16:09:17.000Z,101912
2019-03-21T16:11:17.000Z,101917
2019-03-21T16:13:17.000Z,101914
2019-03-21T16:14:47.000Z,101916
2019-03-21T16:16:17.000Z,101912
2019-03-21T16:17:17.000Z,101912
2019-03-21T16:19:17.000Z,101908
2019-03-21T16:21:02.000Z,101912
2019-03-21T16:23:17.000Z,101911
2019-03-21T16:25:02.000Z,101909
2019-03-21T16:27:17.000Z,101911
2019-03-21T16:28:17.000Z,101910
2019-03-21T16:30:17.000Z,101911
2019-03-21T16:31:17.000Z,101911
2019-03-21T16:33:17.000Z,101912
2019-03-21T16:35:17.000Z,101915
2019-03-21T16:36:17.000Z,101911
2019-03-21T16:38:02.000Z,101912
2019-03-21T16:39:17.000Z,101911
2019-03-21T16:40:17.000Z,101910
2019-03-21T16:42:17.000Z,101907
2019-03-21T16:44:02.000Z,101907
2019-03-21T16:45:17.000Z,101908
2019-03-21T16:47:17.000Z,101907
2019-03-21T16:48:17.000Z,101903
2019-03-21T16:50:17.000Z,101905
2019-03-21T16:51:17.000Z,101905
2019-03-21T16:53:17.000Z,101903
2019-03-21T16:54:17.000Z,101905
2019-03-21T16:56:17.000Z,101903
2019-03-21T16:58:17.000Z,101900
2019-03-21T16:59:17.000Z,101900
2019-03-21T17:01:17.000Z,101904
2019-03-21T17:03:17.000Z,101899
2019-03-21T17:05:02.000Z,101895
2019-03-21T17:06:17.000Z,101896
2019-03-21T17:07:51.000Z,101906
2019-03-21T17:09:38.000Z,101905
2019-03-21T17:11:23.000Z,101910
2019-03-21T17:12:38.000Z,101911
2019-03-21T17:14:23.000Z,101913
2019-03-21T17:15:38.000Z,101912
2019-03-21T17:16:38.000Z,101909
2019-03-21T17:18:38.000Z,101908
2019-03-21T17:20:38.000Z,101910
2019-03-21T17:22:38.000Z,101913
2019-03-21T17:23:38.000Z,101912
2019-03-21T17:25:08.000Z,101916
2019-03-21T17:26:38.000Z,101920
2019-03-21T17:28:38.000Z,101920
2019-03-21T17:30:38.000Z,101921
2019-03-21T17:31:38.000Z,101923
2019-03-21T17:33:38.000Z,101926
2019-03-21T17:35:23.000Z,101926
2019-03-21T17:36:38.000Z,101923
2019-03-21T17:38:38.000Z,101922
2019-03-21T17:40:23.000Z,101924
2019-03-21T17:41:38.000Z,101919
2019-03-21T17:43:38.000Z,101919
2019-03-21T17:45:38.000Z,101922
2019-03-21T17:47:38.000Z,101923
2019-03-21T17:49:38.000Z,101921
2019-03-21T17:51:38.000Z,101918
2019-03-21T17:53:23.000Z,101918
2019-03-21T17:54:38.000Z,101923
2019-03-21T17:56:38.000Z,101922
2019-03-21T17:58:38.000Z,101925
2019-03-21T18:00:38.000Z,101930
2019-03-21T18:02:38.000Z,101929
2019-03-21T18:03:38.000Z,101926
2019-03-21T18:05:38.000Z,101931
2019-03-21T18:07:38.000Z,101933
2019-03-21T18:09:23.000Z,101937
2019-03-21T18:10:38.000Z,101937
2019-03-21T18:11:38.000Z,101934
2019-03-21T18:12:38.000Z,101939
2019-03-21T18:14:38.000Z,101940
2019-03-21T18:16:38.000Z,101935
2019-03-21T18:17:38.000Z,101936
2019-03-21T18:19:38.000Z,101939
2019-03-21T18:20:38.000Z,101935
2019-03-21T18:22:38.000Z,101941
2019-03-21T18:24:38.000Z,101938
2019-03-21T18:26:38.000Z,101942
2019-03-21T18:27:38.000Z,101940
2019-03-21T18:29:38.000Z,101944
2019-03-21T18:30:38.000Z,101945
2019-03-21T18:32:38.000Z,101947
2019-03-21T18:33:38.000Z,101949
2019-03-21T18:35:38.000Z,101949
2019-03-21T18:37:38.000Z,101947
2019-03-21T18:39:38.000Z,101951
2019-03-21T18:41:08.000Z,101951
2019-03-21T18:42:38.000Z,101947
2019-03-21T18:44:38.000Z,101947
2019-03-21T18:46:38.000Z,101954
2019-03-21T18:47:38.000Z,101953
2019-03-21T18:49:38.000Z,101957
2019-03-21T18:51:23.000Z,101956
2019-03-21T18:52:38.000Z,101957
2019-03-21T18:54:38.000Z,101960
2019-03-21T18:55:38.000Z,101955
2019-03-21T18:57:23.000Z,101953
2019-03-21T18:58:38.000Z,101954
2019-03-21T19:00:38.000Z,101951
2019-03-21T19:02:38.000Z,101953
2019-03-21T19:03:38.000Z,101951
2019-03-21T19:05:38.000Z,101956
2019-03-21T19:07:38.000Z,101954
2019-03-21T19:09:38.000Z,101956
2019-03-21T19:10:38.000Z,101954
2019-03-21T19:12:38.000Z,101957
2019-03-21T19:13:38.000Z,101958
2019-03-21T19:15:38.000Z,101959
2019-03-21T19:17:23.000Z,101957
2019-03-21T19:18:38.000Z,101956
2019-03-21T19:20:38.000Z,101953
2019-03-21T19:22:38.000Z,101954
2019-03-21T19:24:08.000Z,101954
2019-03-21T19:26:23.000Z,101953
2019-03-21T19:28:23.000Z,101953
2019-03-21T19:30:38.000Z,101953
2019-03-21T19:32:38.000Z,101952
2019-03-21T19:33:38.000Z,101947
2019-03-21T19:34:38.000Z,101953
2019-03-21T19:36:23.000Z,101958
2019-03-21T19:37:38.000Z,101953
2019-03-21T19:39:23.000Z,101963
2019-03-21T19:40:38.000Z,101960
2019-03-21T19:42:38.000Z,101959
2019-03-21T19:44:23.000Z,101961
2019-03-21T19:45:23.000Z,101962
2019-03-21T19:46:38.000Z,101962
2019-03-21T19:48:23.000Z,101961
2019-03-21T19:49:23.000Z,101962
2019-03-21T19:50:38.000Z,101968
2019-03-21T19:51:38.000Z,101966
2019-03-21T19:53:38.000Z,101967
2019-03-21T19:55:23.000Z,101962
2019-03-21T19:56:24.000Z,101965
2019-03-21T19:57:38.000Z,101966
2019-03-21T19:58:38.000Z,101964
2019-03-21T20:00:23.000Z,101969
2019-03-21T20:01:38.000Z,101968
2019-03-21T20:02:38.000Z,101969
2019-03-21T20:03:38.000Z,101967
2019-03-21T20:05:38.000Z,101966
2019-03-21T20:07:38.000Z,101962
2019-03-21T20:09:38.000Z,101964